Time;durP1;ratioP1;P1;durP2;ratioP2;P2;SDS_P1;SDS_P2;PMS_P1;PMS_P2;Temp;Humidity;BMP_temperature;BMP_pressure;BME280_temperature;BME280_humidity;BME280_pressure;Samples;Min_cycle;Max_cycle;Signal;HPM_P1;HPM_P2
2021/07/11 00:04:38;;;;;;;7.17;3.90;;;;;;;19.17;96.18;94653.56;10530761;28;20822;-76
2021/07/11 00:09:38;;;;;;;7.60;3.20;;;;;;;19.03;96.13;94644.84;10530584;28;20058;-76
2021/07/11 00:14:39;;;;;;;7.60;4.20;;;;;;;19.02;96.18;94643.22;10531212;28;20031;-76
2021/07/11 00:19:39;;;;;;;5.35;2.95;;;;;;;18.99;97.89;94646.63;10531332;28;20043;-77
2021/07/11 00:24:40;;;;;;;4.85;4.13;;;;;;;18.90;98.97;94643.97;10512583;28;20040;-76
2021/07/11 00:29:41;;;;;;;6.30;3.63;;;;;;;18.81;100.00;94643.16;10529871;28;20036;-76
2021/07/11 00:34:41;;;;;;;9.20;4.20;;;;;;;18.65;100.00;94642.91;10527321;28;20028;-76
2021/07/11 00:39:41;;;;;;;4.37;3.80;;;;;;;18.64;100.00;94635.88;10529186;28;20011;-76
2021/07/11 00:44:42;;;;;;;9.30;3.58;;;;;;;18.54;100.00;94639.75;10530051;28;20270;-76
2021/07/11 00:49:44;;;;;;;11.70;3.47;;;;;;;18.60;100.00;94639.25;10531551;28;20052;-77
2021/07/11 00:54:45;;;;;;;7.85;4.32;;;;;;;18.56;100.00;94641.03;10530403;28;20024;-76
2021/07/11 00:59:45;;;;;;;4.32;3.03;;;;;;;18.56;100.00;94632.06;10530875;28;20020;-77
2021/07/11 01:04:56;;;;;;;5.57;3.20;;;;;;;18.53;100.00;94630.81;10528603;28;20035;-76
2021/07/11 01:10:03;;;;;;;5.15;3.75;;;;;;;18.54;100.00;94634.31;10528225;28;20029;-76
2021/07/11 01:15:06;;;;;;;9.18;3.38;;;;;;;18.50;100.00;94628.72;10528389;28;20364;-76
2021/07/11 01:20:24;;;;;;;8.32;3.20;;;;;;;18.47;100.00;94626.66;10528776;28;20028;-76
2021/07/11 01:25:44;;;;;;;;;;;;;;;18.43;100.00;94621.06;10567582;28;20086;-76
2021/07/11 01:30:46;;;;;;;6.35;3.63;;;;;;;18.25;100.00;94625.78;10579476;28;20374;-76
2021/07/11 01:35:47;;;;;;;6.57;3.45;;;;;;;18.12;100.00;94624.03;10560761;28;20498;-76
2021/07/11 01:40:49;;;;;;;5.93;3.03;;;;;;;17.88;100.00;94619.88;10578349;28;20020;-76
2021/07/11 01:45:52;;;;;;;6.40;3.72;;;;;;;17.87;100.00;94615.56;10578561;28;20666;-76
2021/07/11 01:50:55;;;;;;;6.38;3.55;;;;;;;17.80;100.00;94622.63;10578365;28;20031;-76
2021/07/11 01:55:57;;;;;;;6.18;3.20;;;;;;;17.95;100.00;94629.53;10577334;28;20027;-76
2021/07/11 02:00:58;;;;;;;5.78;3.50;;;;;;;17.94;100.00;94617.81;10577997;28;20110;-76
2021/07/11 02:05:59;;;;;;;10.60;3.33;;;;;;;18.01;100.00;94620.06;10577329;28;20023;-76
2021/07/11 02:11:01;;;;;;;8.57;4.05;;;;;;;17.97;100.00;94632.72;10577211;28;20494;-76
2021/07/11 02:16:07;;;;;;;7.53;3.17;;;;;;;17.99;100.00;94646.78;10576052;28;20057;-75
2021/07/11 02:21:07;;;;;;;4.25;3.85;;;;;;;17.96;100.00;94637.34;10558564;28;20027;-76
2021/07/11 02:26:08;;;;;;;5.05;3.72;;;;;;;17.91;100.00;94649.19;10575493;28;20047;-76
2021/07/11 02:31:12;;;;;;;7.18;3.05;;;;;;;17.89;100.00;94647.91;10571723;28;20043;-76
2021/07/11 02:36:17;;;;;;;5.03;3.40;;;;;;;17.90;100.00;94642.13;10552026;28;20012;-76
2021/07/11 02:41:19;;;;;;;7.05;3.67;;;;;;;17.79;100.00;94656.34;10530828;28;20058;-75
2021/07/11 02:46:27;;;;;;;6.50;3.65;;;;;;;17.76;100.00;94650.47;10533898;28;20107;-76
2021/07/11 02:51:30;;;;;;;12.38;3.65;;;;;;;17.78;100.00;94655.56;10557819;28;20020;-77
2021/07/11 02:56:35;;;;;;;6.13;3.75;;;;;;;17.68;100.00;94658.59;10561296;28;20061;-76
2021/07/11 03:01:36;;;;;;;8.45;4.47;;;;;;;17.50;100.00;94658.59;10546044;28;20391;-76
2021/07/11 03:06:36;;;;;;;10.45;4.32;;;;;;;17.54;100.00;94662.28;10523215;28;20107;-77
2021/07/11 03:11:40;;;;;;;7.47;3.70;;;;;;;17.56;100.00;94667.41;10530051;28;20034;-76
2021/07/11 03:16:48;;;;;;;6.95;4.40;;;;;;;17.61;100.00;94659.09;10537733;28;20317;-76
2021/07/11 03:21:50;;;;;;;6.40;4.07;;;;;;;17.64;100.00;94660.34;10536472;28;20028;-76
2021/07/11 03:26:54;;;;;;;5.47;3.80;;;;;;;17.79;100.00;94654.47;10559836;28;20036;-76
2021/07/11 03:31:57;;;;;;;8.05;3.45;;;;;;;17.72;100.00;94662.28;10571753;28;20032;-76
2021/07/11 03:37:04;;;;;;;7.00;4.35;;;;;;;17.65;100.00;94660.06;10569305;28;20026;-76
2021/07/11 03:42:08;;;;;;;6.50;3.80;;;;;;;17.62;100.00;94662.59;10571091;28;20136;-76
2021/07/11 03:47:12;;;;;;;5.68;3.85;;;;;;;17.46;100.00;94662.28;10570608;28;20103;-76
2021/07/11 03:52:16;;;;;;;5.43;3.70;;;;;;;17.44;100.00;94665.31;10570379;28;20031;-76
2021/07/11 03:57:17;;;;;;;7.20;3.90;;;;;;;17.58;100.00;94670.59;10570542;28;20027;-76
2021/07/11 04:02:18;;;;;;;7.72;3.88;;;;;;;17.72;100.00;94679.41;10568366;28;20026;-76
2021/07/11 04:07:22;;;;;;;6.65;3.58;;;;;;;17.96;100.00;94675.41;10569703;28;20582;-76
2021/07/11 04:12:22;;;;;;;6.50;3.97;;;;;;;18.14;100.00;94680.81;10567587;28;20130;-76
2021/07/11 04:17:25;;;;;;;5.25;4.38;;;;;;;18.24;100.00;94677.78;10568180;28;20030;-76
2021/07/11 04:22:27;;;;;;;9.75;4.05;;;;;;;18.40;100.00;94678.06;10574143;27;20075;-76
2021/07/11 04:27:28;;;;;;;7.78;4.38;;;;;;;18.57;100.00;94683.47;10610696;27;20031;-77
2021/07/11 04:32:29;;;;;;;7.18;3.78;;;;;;;19.10;100.00;94688.69;10611638;27;20031;-76
2021/07/11 04:37:30;;;;;;;4.45;3.53;;;;;;;19.52;100.00;94696.16;10611349;27;20020;-76
2021/07/11 04:42:30;;;;;;;16.37;4.20;;;;;;;20.02;97.64;94692.59;10611021;27;20027;-77
2021/07/11 04:47:30;;;;;;;7.37;3.70;;;;;;;20.44;93.90;94694.44;10611418;27;20038;-77
2021/07/11 04:52:31;;;;;;;8.60;4.37;;;;;;;20.84;90.38;94682.94;10610444;27;20027;-77
2021/07/11 04:57:32;;;;;;;14.23;4.95;;;;;;;21.12;88.19;94690.47;10610138;27;20040;-77
2021/07/11 05:02:33;;;;;;;6.53;3.50;;;;;;;21.57;87.87;94684.06;10610549;27;20035;-77
2021/07/11 05:07:34;;;;;;;9.90;3.88;;;;;;;21.96;82.83;94695.41;10610561;27;20037;-77
2021/07/11 05:12:36;;;;;;;14.60;3.92;;;;;;;22.02;82.07;94698.69;10603771;28;20440;-77
2021/07/11 05:17:36;;;;;;;8.68;3.83;;;;;;;22.52;82.12;94694.63;10567902;28;20020;-77
2021/07/11 05:22:37;;;;;;;6.05;3.53;;;;;;;23.41;73.25;94694.47;10567098;28;20043;-76
2021/07/11 05:27:37;;;;;;;5.93;3.27;;;;;;;23.87;71.00;94683.75;10533461;28;20937;-77
2021/07/11 05:32:38;;;;;;;8.30;4.25;;;;;;;24.53;65.20;94683.06;10539465;28;20421;-76
2021/07/11 05:37:38;;;;;;;12.63;3.50;;;;;;;24.95;61.54;94681.50;10532606;28;20031;-76
2021/07/11 05:42:38;;;;;;;8.13;4.27;;;;;;;25.35;59.02;94686.50;10507395;28;20021;-76
2021/07/11 05:47:39;;;;;;;7.07;3.75;;;;;;;25.69;59.38;94680.28;10535050;28;20039;-76
2021/07/11 05:52:40;;;;;;;4.63;3.72;;;;;;;25.97;56.99;94676.34;10537957;28;20042;-77
2021/07/11 05:57:41;;;;;;;6.45;3.90;;;;;;;26.38;56.41;94680.03;10517351;28;20046;-76
2021/07/11 06:02:41;;;;;;;8.80;3.75;;;;;;;27.40;51.33;94684.56;10534347;28;20035;-77
2021/07/11 06:07:41;;;;;;;11.30;4.07;;;;;;;27.83;47.46;94676.56;10539657;28;20410;-77
2021/07/11 06:12:43;;;;;;;10.83;4.07;;;;;;;28.39;47.55;94681.97;10543884;28;20273;-77
2021/07/11 06:17:43;;;;;;;5.97;3.35;;;;;;;29.11;44.93;94671.88;10549737;28;20082;-77
2021/07/11 06:22:44;;;;;;;6.77;3.50;;;;;;;29.31;44.72;94677.06;10554415;27;20914;-76
2021/07/11 06:27:45;;;;;;;7.00;2.70;;;;;;;29.91;42.49;94678.16;10590204;27;20032;-77
2021/07/11 06:32:47;;;;;;;5.43;3.17;;;;;;;30.89;40.79;94672.22;10575392;27;20045;-77
2021/07/11 06:37:48;;;;;;;4.40;2.67;;;;;;;30.98;39.83;94672.56;10577128;27;20091;-77
2021/07/11 06:42:50;;;;;;;6.43;3.50;;;;;;;31.97;39.08;94660.19;10573514;27;20170;-77
2021/07/11 06:47:51;;;;;;;6.35;2.60;;;;;;;32.35;35.41;94665.75;10572521;28;20445;-76
2021/07/11 06:52:51;;;;;;;6.63;3.30;;;;;;;32.96;35.30;94658.59;10573739;28;20076;-76
2021/07/11 06:57:52;;;;;;;7.43;3.17;;;;;;;33.30;34.25;94660.50;10556382;28;20440;-76
2021/07/11 07:02:52;;;;;;;7.70;3.43;;;;;;;33.54;35.46;94656.47;10574854;28;20030;-77
2021/07/11 07:07:52;;;;;;;9.47;3.53;;;;;;;34.34;33.30;94649.47;10574855;28;20742;-76
2021/07/11 07:12:53;;;;;;;8.00;3.20;;;;;;;34.90;31.92;94646.69;10575848;28;20459;-76
2021/07/11 07:17:54;;;;;;;6.00;3.03;;;;;;;34.70;33.12;94648.69;10581520;27;20139;-76
2021/07/11 07:22:54;;;;;;;8.93;3.53;;;;;;;35.31;31.24;94649.34;10582990;27;20294;-77
2021/07/11 07:27:55;;;;;;;4.80;2.90;;;;;;;34.83;31.53;94648.84;10540334;28;20032;-77
2021/07/11 07:32:55;;;;;;;11.30;2.93;;;;;;;35.63;30.64;94656.13;10548646;28;20024;-76
2021/07/11 07:37:56;;;;;;;3.30;2.38;;;;;;;36.50;29.09;94652.59;10542889;28;20538;-77
2021/07/11 07:42:56;;;;;;;4.17;2.90;;;;;;;33.78;31.64;94664.84;10531970;28;20020;-76
2021/07/11 07:47:56;;;;;;;8.97;3.93;;;;;;;34.07;32.16;94651.16;10525642;28;20020;-77
2021/07/11 07:52:57;;;;;;;6.03;2.73;;;;;;;35.85;30.34;94645.19;10529468;28;20486;-76
2021/07/11 07:57:59;;;;;;;9.63;2.70;;;;;;;36.80;27.83;94647.75;10536756;28;20049;-76
2021/07/11 08:02:59;;;;;;;3.95;2.35;;;;;;;36.42;27.98;94643.63;10571232;28;20023;-76
2021/07/11 08:08:00;;;;;;;10.33;2.70;;;;;;;36.55;28.39;94637.28;10550759;28;20019;-76
2021/07/11 08:13:00;;;;;;;4.30;2.10;;;;;;;36.71;25.82;94630.78;10569873;28;20041;-76
2021/07/11 08:18:00;;;;;;;7.13;2.17;;;;;;;38.05;26.52;94641.28;10569922;28;20387;-76
2021/07/11 08:23:01;;;;;;;5.20;2.30;;;;;;;35.82;27.54;94632.09;10541852;28;20526;-75
2021/07/11 08:28:02;;;;;;;3.70;2.20;;;;;;;36.03;27.16;94625.13;10570790;28;20112;-76
2021/07/11 08:33:03;;;;;;;6.47;2.50;;;;;;;34.87;27.44;94641.97;10568395;27;20280;-76
2021/07/11 08:38:03;;;;;;;6.43;2.00;;;;;;;34.30;28.11;94640.38;10583682;27;20024;-76
2021/07/11 08:43:07;;;;;;;5.93;1.90;;;;;;;34.94;26.84;94624.25;10568767;28;20028;-76
2021/07/11 08:48:08;;;;;;;4.70;2.00;;;;;;;35.77;25.67;94619.41;10572800;27;20032;-76
2021/07/11 08:53:14;;;;;;;2.30;1.98;;;;;;;36.46;25.33;94620.34;10567579;28;20027;-76
2021/07/11 08:58:14;;;;;;;3.63;1.75;;;;;;;36.30;25.71;94610.75;10581533;28;20445;-76
2021/07/11 09:03:15;;;;;;;6.18;2.22;;;;;;;36.92;25.47;94616.16;10579637;27;20033;-76
2021/07/11 09:08:23;;;;;;;3.00;1.70;;;;;;;37.67;23.36;94609.28;10550825;28;20023;-76
2021/07/11 09:13:26;;;;;;;4.28;1.80;;;;;;;38.76;21.97;94609.00;10568516;28;20482;-76
2021/07/11 09:18:32;;;;;;;16.27;2.05;;;;;;;38.92;22.31;94616.41;10569243;28;20028;-76
2021/07/11 09:23:34;;;;;;;2.83;1.70;;;;;;;38.17;23.11;94609.56;10596714;28;20047;-76
2021/07/11 09:28:49;;;;;;;3.30;1.77;;;;;;;39.00;22.48;94591.63;10610799;28;20046;-76
2021/07/11 09:33:57;;;;;;;9.23;2.40;;;;;;;39.38;22.67;94587.66;10610478;28;20051;-76
2021/07/11 09:39:00;;;;;;;6.43;1.70;;;;;;;39.26;22.29;94584.53;10610631;28;20016;-76
2021/07/11 09:44:04;;;;;;;2.05;1.83;;;;;;;40.70;21.03;94580.25;10612621;27;20030;-76
2021/07/11 09:49:15;;;;;;;6.63;1.40;;;;;;;41.01;19.67;94579.22;10609712;27;20826;-76
2021/07/11 09:54:16;;;;;;;3.65;1.30;;;;;;;40.28;19.85;94581.00;10575417;28;20034;-76
2021/07/11 09:59:18;;;;;;;4.67;1.30;;;;;;;39.06;20.82;94573.69;10575795;28;20048;-76
2021/07/11 10:04:19;;;;;;;2.65;1.60;;;;;;;40.13;20.08;94569.59;10590999;27;20035;-76
2021/07/11 10:09:20;;;;;;;3.55;1.67;;;;;;;41.20;18.93;94585.53;10592267;27;20110;-76
2021/07/11 10:14:20;;;;;;;5.95;1.45;;;;;;;40.41;19.77;94555.44;10580377;27;20041;-77
2021/07/11 10:19:21;;;;;;;3.43;1.67;;;;;;;39.64;19.37;94560.06;10598898;27;20023;-76
2021/07/11 10:24:21;;;;;;;3.03;1.40;;;;;;;40.11;19.17;94570.06;10591504;27;20050;-76
2021/07/11 10:29:23;;;;;;;1.80;1.30;;;;;;;40.02;18.23;94544.72;10568480;27;20092;-76
2021/07/11 10:34:34;;;;;;;1.83;1.00;;;;;;;39.62;18.31;94549.28;10571880;28;20019;-76
2021/07/11 10:39:34;;;;;;;3.50;1.30;;;;;;;41.29;17.54;94548.03;10569577;28;20402;-76
2021/07/11 10:44:35;;;;;;;4.78;1.30;;;;;;;40.24;17.66;94541.72;10552272;28;20147;-76
2021/07/11 10:49:48;;;;;;;2.45;1.55;;;;;;;39.60;18.28;94540.53;10569374;28;20490;-76
2021/07/11 10:54:58;;;;;;;1.83;1.23;;;;;;;40.17;17.46;94538.47;10570918;28;20035;-75
2021/07/11 11:00:12;;;;;;;6.75;1.60;;;;;;;40.03;17.95;94525.81;10588748;27;20482;-76
2021/07/11 11:05:20;;;;;;;1.58;1.33;;;;;;;41.91;17.56;94515.47;10574237;27;20037;-75
2021/07/11 11:10:35;;;;;;;3.30;1.75;;;;;;;35.36;22.82;94517.47;10573106;28;20019;-76
2021/07/11 11:15:46;;;;;;;4.45;2.10;;;;;;;33.31;24.28;94522.78;10581577;27;20469;-75
2021/07/11 11:20:58;;;;;;;2.97;2.38;;;;;;;31.61;28.58;94507.81;10576177;27;20070;-75
2021/07/11 11:26:00;;;;;;;5.50;2.45;;;;;;;30.72;31.06;94510.22;10583558;27;20047;-75
2021/07/11 11:31:09;;;;;;;4.22;2.90;;;;;;;30.40;31.76;94502.94;10582382;27;20039;-76
2021/07/11 11:36:09;;;;;;;3.92;3.22;;;;;;;30.43;30.90;94505.69;10614205;27;20090;-75
2021/07/11 11:41:12;;;;;;;4.60;3.60;;;;;;;30.20;30.93;94491.56;10614347;27;20015;-75
2021/07/11 11:46:23;;;;;;;5.53;3.30;;;;;;;29.89;30.62;94500.47;10599420;27;20019;-76
2021/07/11 11:51:24;;;;;;;4.55;2.97;;;;;;;29.25;30.80;94490.41;10551981;28;20037;-76
2021/07/11 11:56:25;;;;;;;5.22;2.92;;;;;;;29.37;30.41;94492.75;10569632;28;20038;-75
2021/07/11 12:01:33;;;;;;;3.50;2.42;;;;;;;29.60;29.37;94483.19;10570940;28;20518;-78
2021/07/11 12:06:33;;;;;;;4.28;3.00;;;;;;;29.80;28.40;94475.16;10568467;28;20016;-76
2021/07/11 12:11:35;;;;;;;5.53;2.45;;;;;;;29.81;29.71;94482.28;10571452;27;20031;-76
2021/07/11 12:16:36;;;;;;;3.85;2.33;;;;;;;29.70;29.50;94482.31;10603557;27;20027;-76
2021/07/11 12:21:44;;;;;;;4.15;2.50;;;;;;;29.59;27.78;94478.81;10586301;27;20034;-76
2021/07/11 12:26:47;;;;;;;4.75;2.58;;;;;;;29.57;28.71;94475.66;10594489;27;20043;-76
2021/07/11 12:31:55;;;;;;;4.45;2.90;;;;;;;29.56;28.35;94460.25;10612969;27;20073;-76
2021/07/11 12:37:02;;;;;;;3.95;2.88;;;;;;;29.66;30.33;94449.09;10610775;27;20068;-76
2021/07/11 12:42:17;;;;;;;6.95;3.15;;;;;;;29.54;30.02;94463.44;10611424;27;20030;-76
2021/07/11 12:47:18;;;;;;;4.22;3.15;;;;;;;29.24;30.30;94452.88;10582029;27;20106;-76
2021/07/11 12:52:19;;;;;;;4.05;3.10;;;;;;;29.09;30.92;94463.94;10567956;28;20826;-77
2021/07/11 12:57:25;;;;;;;7.13;3.38;;;;;;;28.88;32.01;94455.69;10567058;28;20420;-76
2021/07/11 13:02:29;;;;;;;5.50;3.60;;;;;;;28.93;31.95;94449.75;10579855;27;20023;-76
2021/07/11 13:07:31;;;;;;;4.78;2.83;;;;;;;28.80;31.30;94450.19;10625743;27;20031;-82
2021/07/11 13:12:32;;;;;;;3.58;2.97;;;;;;;29.11;31.87;94425.59;10571889;28;20034;-76
2021/07/11 13:17:33;;;;;;;5.05;2.95;;;;;;;29.09;30.39;94439.03;10567992;28;20024;-76
2021/07/11 13:22:33;;;;;;;5.50;3.70;;;;;;;29.16;32.02;94429.91;10594153;27;20158;-76
2021/07/11 13:27:33;;;;;;;5.63;3.30;;;;;;;29.17;32.74;94433.50;10618071;27;20513;-76
2021/07/11 13:32:34;;;;;;;7.55;4.45;;;;;;;29.11;33.26;94430.34;10611907;27;20123;-76
2021/07/11 13:37:34;;;;;;;5.60;3.97;;;;;;;29.01;33.24;94436.69;10595243;27;20027;-76
2021/07/11 13:42:36;;;;;;;7.38;4.45;;;;;;;28.95;32.81;94428.00;10586242;27;20296;-76
2021/07/11 13:47:37;;;;;;;4.60;3.58;;;;;;;28.89;33.31;94421.31;10577389;27;20906;-76
2021/07/11 13:52:38;;;;;;;5.35;3.80;;;;;;;28.92;32.69;94413.00;10594044;27;20451;-76
2021/07/11 13:57:39;;;;;;;6.55;3.33;;;;;;;28.98;32.15;94413.38;10598756;27;20080;-76
2021/07/11 14:02:39;;;;;;;6.60;3.83;;;;;;;29.03;32.06;94403.88;10584171;27;20051;-76
2021/07/11 14:07:41;;;;;;;4.53;3.70;;;;;;;28.88;31.78;94395.63;10580454;27;20387;-75
2021/07/11 14:12:41;;;;;;;5.47;3.97;;;;;;;28.86;32.41;94402.72;10588188;27;20036;-75
2021/07/11 14:17:42;;;;;;;8.20;4.45;;;;;;;28.86;33.31;94392.47;10532272;28;20020;-75
2021/07/11 14:22:42;;;;;;;9.10;4.20;;;;;;;28.75;32.09;94392.50;10606676;27;20467;-76
2021/07/11 14:27:43;;;;;;;7.95;3.90;;;;;;;28.63;32.69;94398.44;10601589;27;20529;-75
2021/07/11 14:32:44;;;;;;;6.32;3.63;;;;;;;28.68;32.82;94392.53;10576007;27;20027;-75
2021/07/11 14:37:44;;;;;;;6.30;3.60;;;;;;;28.57;33.12;94384.22;10579961;27;20028;-75
2021/07/11 14:42:45;;;;;;;3.90;3.03;;;;;;;28.60;31.96;94379.88;10546319;28;20266;-75
2021/07/11 14:47:46;;;;;;;7.65;3.60;;;;;;;28.52;32.31;94375.53;10563162;27;20474;-75
2021/07/11 14:52:46;;;;;;;5.85;3.72;;;;;;;28.49;32.57;94368.81;10582980;27;20033;-75
2021/07/11 14:57:46;;;;;;;7.87;3.40;;;;;;;28.51;31.63;94365.66;10606709;27;20031;-76
2021/07/11 15:02:47;;;;;;;7.10;3.80;;;;;;;28.54;30.84;94373.19;10598113;27;20064;-75
2021/07/11 15:07:47;;;;;;;5.20;3.53;;;;;;;28.43;31.51;94371.22;10614987;27;20015;-75
2021/07/11 15:12:48;;;;;;;5.50;3.63;;;;;;;28.35;32.00;94375.16;10610931;27;20968;-75
2021/07/11 15:17:49;;;;;;;5.43;3.30;;;;;;;28.38;31.90;94370.81;10600832;27;20049;-75
2021/07/11 15:22:49;;;;;;;6.20;3.17;;;;;;;28.39;32.02;94364.88;10577849;27;20217;-76
2021/07/11 15:27:50;;;;;;;11.77;3.40;;;;;;;28.31;31.80;94363.31;10599513;27;20031;-76
2021/07/11 15:32:50;;;;;;;8.40;3.53;;;;;;;28.21;32.26;94366.91;10611888;27;20268;-75
2021/07/11 15:37:51;;;;;;;5.47;3.15;;;;;;;28.27;32.17;94368.88;10572333;27;20020;-75
2021/07/11 15:42:52;;;;;;;8.38;3.88;;;;;;;28.27;32.20;94365.28;10527465;28;20024;-75
2021/07/11 15:47:53;;;;;;;4.57;2.70;;;;;;;28.29;32.02;94372.00;10528396;28;20034;-75
2021/07/11 15:52:53;;;;;;;4.38;2.90;;;;;;;28.22;31.91;94368.47;10528140;28;20063;-75
2021/07/11 15:57:53;;;;;;;5.23;3.40;;;;;;;28.26;31.93;94369.28;10527434;28;20570;-75
2021/07/11 16:02:54;;;;;;;4.10;3.33;;;;;;;28.24;32.26;94377.94;10527057;28;20073;-75
2021/07/11 16:07:58;;;;;;;5.57;3.27;;;;;;;28.10;32.19;94376.00;10527527;28;20034;-75
2021/07/11 16:12:58;;;;;;;4.15;3.38;;;;;;;28.13;32.39;94375.19;10509160;28;20778;-75
2021/07/11 16:17:59;;;;;;;5.20;3.42;;;;;;;28.13;32.43;94383.47;10526704;28;20044;-75
2021/07/11 16:22:59;;;;;;;7.97;4.13;;;;;;;28.06;32.29;94388.22;10551590;28;20052;-75
2021/07/11 16:28:00;;;;;;;4.03;3.13;;;;;;;28.04;32.30;94383.09;10525653;28;20027;-75
2021/07/11 16:33:03;;;;;;;4.80;3.25;;;;;;;28.07;31.96;94393.34;10508208;28;20024;-75
2021/07/11 16:38:05;;;;;;;9.25;3.20;;;;;;;27.97;31.55;94397.66;10508337;28;20135;-75
2021/07/11 16:43:05;;;;;;;6.38;2.58;;;;;;;28.01;31.63;94394.16;10526747;28;20058;-75
2021/07/11 16:48:06;;;;;;;3.70;2.77;;;;;;;27.99;31.28;94396.47;10507743;28;20031;-75
2021/07/11 16:53:06;;;;;;;5.03;3.08;;;;;;;27.91;31.38;94409.50;10525504;28;20094;-75
2021/07/11 16:58:06;;;;;;;4.50;3.40;;;;;;;27.88;31.93;94413.03;10525685;28;20028;-75
2021/07/11 17:03:07;;;;;;;3.03;2.20;;;;;;;27.84;32.12;94432.38;10525506;28;20772;-75
2021/07/11 17:08:07;;;;;;;5.20;2.97;;;;;;;27.74;32.33;94425.66;10525226;28;20035;-75
2021/07/11 17:13:08;;;;;;;3.60;2.80;;;;;;;27.62;32.93;94439.81;10527068;28;20032;-75
2021/07/11 17:18:08;;;;;;;7.43;3.27;;;;;;;27.57;33.74;94448.47;10538815;28;20474;-75
2021/07/11 17:23:08;;;;;;;6.13;4.13;;;;;;;27.42;39.63;94458.66;10541299;27;20051;-75
2021/07/11 17:28:09;;;;;;;8.50;4.63;;;;;;;27.28;44.79;94470.41;10550591;28;20419;-75
2021/07/11 17:33:09;;;;;;;7.40;4.10;;;;;;;26.81;50.90;94472.91;10567301;28;20043;-75
2021/07/11 17:38:10;;;;;;;10.07;4.85;;;;;;;26.69;54.73;94486.97;10566368;28;20031;-75
2021/07/11 17:43:11;;;;;;;6.57;4.40;;;;;;;26.55;56.88;94482.16;10545337;28;20482;-75
2021/07/11 17:48:12;;;;;;;6.72;5.00;;;;;;;26.43;59.37;94499.78;10540329;28;20032;-75
2021/07/11 17:53:13;;;;;;;9.25;5.55;;;;;;;26.40;59.81;94506.84;10531254;28;20028;-75
2021/07/11 17:58:14;;;;;;;6.28;4.32;;;;;;;26.16;63.79;94504.66;10566079;28;20073;-75
2021/07/11 18:03:14;;;;;;;8.25;4.53;;;;;;;26.17;64.38;94517.28;10548346;28;20026;-75
2021/07/11 18:08:14;;;;;;;12.30;4.80;;;;;;;25.95;65.84;94516.22;10547834;28;20217;-75
2021/07/11 18:13:15;;;;;;;14.13;5.00;;;;;;;25.85;67.25;94512.97;10523506;28;20032;-75
2021/07/11 18:18:15;;;;;;;8.23;4.73;;;;;;;25.71;63.19;94523.84;10534463;28;20027;-75
2021/07/11 18:23:15;;;;;;;15.60;5.90;;;;;;;25.72;63.14;94525.44;10532622;28;20044;-75
2021/07/11 18:28:16;;;;;;;11.63;6.33;;;;;;;25.56;63.41;94531.94;10537003;28;20035;-75
2021/07/11 18:33:23;;;;;;;7.40;5.30;;;;;;;25.43;64.11;94538.84;10528370;28;20407;-75
2021/07/11 18:38:24;;;;;;;7.40;5.03;;;;;;;25.38;64.51;94541.91;10515731;28;20019;-75
2021/07/11 18:43:25;;;;;;;8.50;4.97;;;;;;;25.32;65.58;94548.88;10530825;28;20032;-75
2021/07/11 18:48:28;;;;;;;8.68;5.20;;;;;;;25.24;66.84;94557.03;10528521;28;20462;-75
2021/07/11 18:53:29;;;;;;;10.50;4.72;;;;;;;25.17;66.34;94559.66;10528101;28;20019;-74
2021/07/11 18:58:30;;;;;;;8.55;5.63;;;;;;;25.07;67.19;94550.09;10527018;28;20560;-75
2021/07/11 19:03:30;;;;;;;14.10;5.75;;;;;;;25.04;67.49;94561.06;10528063;28;20028;-75
2021/07/11 19:08:31;;;;;;;11.10;5.72;;;;;;;24.97;67.63;94570.00;10509115;28;20479;-75
2021/07/11 19:13:31;;;;;;;13.43;5.67;;;;;;;24.89;68.69;94580.09;10526561;28;20028;-75
2021/07/11 19:18:31;;;;;;;6.90;4.87;;;;;;;24.83;69.59;94583.53;10525715;28;20390;-75
2021/07/11 19:23:32;;;;;;;10.93;6.30;;;;;;;24.72;70.60;94586.09;10507562;28;20294;-75
2021/07/11 19:28:32;;;;;;;8.98;5.63;;;;;;;24.73;71.89;94596.72;10507691;28;20035;-75
2021/07/11 19:33:33;;;;;;;6.57;5.40;;;;;;;24.46;74.43;94595.03;10547021;28;20035;-75
2021/07/11 19:38:34;;;;;;;7.88;5.93;;;;;;;24.05;79.50;94611.97;10547099;28;20483;-74
2021/07/11 19:43:34;;;;;;;10.20;6.00;;;;;;;23.75;81.10;94611.72;10527794;28;20440;-75
2021/07/11 19:48:34;;;;;;;9.57;5.97;;;;;;;23.44;84.74;94616.16;10510327;28;20482;-75
2021/07/11 19:53:35;;;;;;;10.27;5.67;;;;;;;23.32;86.24;94617.09;10527702;28;20274;-74
2021/07/11 19:58:35;;;;;;;14.18;6.38;;;;;;;23.36;86.67;94609.75;10535506;28;21024;-75
2021/07/11 20:03:36;;;;;;;9.10;5.78;;;;;;;23.21;88.99;94616.84;10547772;28;20040;-74
2021/07/11 20:08:36;;;;;;;12.85;5.70;;;;;;;23.26;89.22;94626.72;10525781;28;20179;-75
2021/07/11 20:13:37;;;;;;;9.43;6.43;;;;;;;23.08;94.87;94620.81;10528212;28;20038;-74
2021/07/11 20:18:38;;;;;;;11.68;6.07;;;;;;;23.10;97.17;94635.75;10525104;28;20015;-76
2021/07/11 20:23:38;;;;;;;22.70;6.72;;;;;;;22.69;100.00;94632.44;10535378;28;20087;-75
2021/07/11 20:28:39;;;;;;;15.88;7.22;;;;;;;22.59;100.00;94632.94;10542273;28;20085;-74
2021/07/11 20:33:40;;;;;;;11.25;6.80;;;;;;;22.46;100.00;94634.97;10532218;28;20499;-75
2021/07/11 20:38:40;;;;;;;12.53;8.13;;;;;;;22.45;100.00;94644.31;10523737;28;20483;-75
2021/07/11 20:43:40;;;;;;;16.97;8.00;;;;;;;22.46;100.00;94646.72;10528585;28;20467;-75
2021/07/11 20:48:43;;;;;;;12.90;6.23;;;;;;;22.51;100.00;94631.97;10525829;28;20027;-75
2021/07/11 20:53:43;;;;;;;13.55;5.93;;;;;;;22.55;100.00;94632.06;10529643;28;20864;-75
2021/07/11 20:58:47;;;;;;;12.98;6.80;;;;;;;22.59;100.00;94639.22;10552645;28;20094;-75
2021/07/11 21:03:47;;;;;;;10.10;7.13;;;;;;;22.57;100.00;94640.72;10537618;28;20034;-74
2021/07/11 21:08:48;;;;;;;9.67;6.47;;;;;;;22.39;100.00;94640.25;10535822;28;20054;-75
2021/07/11 21:13:49;;;;;;;11.25;5.82;;;;;;;22.44;100.00;94645.47;10489735;28;20024;-75
2021/07/11 21:18:49;;;;;;;11.70;6.80;;;;;;;22.24;100.00;94644.53;10484880;28;20085;-75
2021/07/11 21:23:49;;;;;;;10.73;6.53;;;;;;;22.22;100.00;94636.66;10546307;28;20059;-75
2021/07/11 21:28:54;;;;;;;8.80;6.57;;;;;;;22.18;100.00;94627.56;10609594;28;20031;-75
2021/07/11 21:33:56;;;;;;;13.18;6.60;;;;;;;22.23;100.00;94619.09;10596944;27;20114;-75
2021/07/11 21:38:58;;;;;;;9.20;6.43;;;;;;;22.16;100.00;94621.66;10568979;28;20026;-75
2021/07/11 21:43:59;;;;;;;7.22;6.05;;;;;;;22.15;100.00;94634.53;10575248;28;20139;-75
2021/07/11 21:48:59;;;;;;;9.75;6.45;;;;;;;22.09;100.00;94629.66;10583690;27;20046;-75
2021/07/11 21:53:59;;;;;;;12.63;7.20;;;;;;;21.99;100.00;94622.75;10573083;28;20028;-74
2021/07/11 21:59:00;;;;;;;18.70;6.00;;;;;;;21.87;100.00;94615.38;10587645;27;20023;-75
2021/07/11 22:04:00;;;;;;;12.60;6.50;;;;;;;21.82;100.00;94621.09;10574691;27;20090;-75
2021/07/11 22:09:02;;;;;;;12.20;6.87;;;;;;;21.70;100.00;94615.66;10573963;27;20117;-75
2021/07/11 22:14:04;;;;;;;9.50;5.57;;;;;;;21.58;100.00;94624.72;10590308;27;20798;-75
2021/07/11 22:19:05;;;;;;;11.75;6.97;;;;;;;21.60;100.00;94606.84;10573589;28;20011;-75
2021/07/11 22:24:06;;;;;;;8.68;6.35;;;;;;;21.62;100.00;94604.53;10574279;28;20047;-74
2021/07/11 22:29:07;;;;;;;14.02;6.18;;;;;;;21.54;100.00;94616.41;10582834;27;20097;-75
2021/07/11 22:34:07;;;;;;;18.85;7.18;;;;;;;21.45;100.00;94621.19;10579907;27;20111;-75
2021/07/11 22:39:08;;;;;;;10.17;5.93;;;;;;;21.08;100.00;94616.56;10582985;27;20030;-75
2021/07/11 22:44:10;;;;;;;8.23;6.38;;;;;;;20.89;100.00;94605.44;10586366;27;20037;-75
2021/07/11 22:49:11;;;;;;;10.25;6.18;;;;;;;20.67;100.00;94618.38;10610300;27;20023;-79
2021/07/11 22:54:11;;;;;;;11.07;5.97;;;;;;;20.62;100.00;94613.94;10601324;27;20505;-79
2021/07/11 22:59:12;;;;;;;12.73;7.27;;;;;;;20.58;100.00;94602.13;10579117;27;20269;-78
2021/07/11 23:04:12;;;;;;;11.27;6.33;;;;;;;20.43;100.00;94621.88;10577977;27;20111;-79
2021/07/11 23:09:12;;;;;;;13.50;6.37;;;;;;;20.48;100.00;94616.19;10563216;27;20376;-79
2021/07/11 23:14:13;;;;;;;10.70;6.10;;;;;;;20.47;100.00;94611.84;10578101;27;20076;-80
2021/07/11 23:19:13;;;;;;;10.17;6.20;;;;;;;20.52;100.00;94617.09;10597956;27;20018;-80